Hovedside
METAR-TAF:

METAR-TAF

Lufthavner :

Šiauliai, Litauen

breddegrad: 55-53-38N, lengdegrad: 023-23-42E, høyde over havet: 135 m

Gjeldene værobservasjon

Denne rapporten ble laget for 33 minutter siden, klokken 09:50 UTC
Vind 14 kt fra Vest-sørvest, skiftende mellom Sør-sørvest og Vest
Temperatur 17°C
Luftfuktighet 55%
Trykk 1005 hPa
Sikt 10 km eller mer
Spredte skyer i en høyde av 4000 ft
Brutte skyer i en høyde av 5000 ft

METAR: EYSA 250950Z 24014KT 210V270 9999 SCT040 BKN050 17/08 Q1005 BLU NOSIG

Tid: 13:23 (10:23 UTC)


TAF: fraværende

Værobservasjoner og værvarsel for over 4000 flyplasser (METAR- og TAF-rapporter).

Tilgjengelige stasjoner er representert av de røde og gule prikkene på kartet.

Hold musepekeren over prikken for å se navnet på stasjonen.

Klikk så for å se værobservasjoner og -varsler.

For å forandre kartet kan du klikke på den grønne knappen med svart kryss for å zoome inn, på den grønne knappen med strek for å zoome ut, eller på de grønne pilene for å se tilstøtende kart.


METAR-TAF: